Terminal Aerodrome Forecast
Issued by NWS Cleveland, OH

Home | Current Version | Previous Version | Text Only | Print | Product List | Glossary Off
Versions: 1 2 3 4 5 6 7 8 9 10 11 12 13 14 15 16 17 18 19 20 21 22 23 24 25 26 27 28

000
FTUS41 KCLE 171400 AAB
TAFERI
TAF AMD
KERI 171456Z 1715/1812 20015G25KT P6SM SCT025 BKN045
      TEMPO 1715/1718 BKN025
     FM180000 21012KT P6SM BKN050
     FM180400 24010G20KT 4SM -SHRA BR SCT015 OVC025
     FM180900 27015G25KT 3SM -SHRA BR SCT009 OVC015=

USA.gov is the U.S. government's official web portal to all federal, state and local government web resources and services.